^^
Grace C. Lehan Memorial Weather Station Historical Data
Daily Summary for February 8, 2021 Units:  Both    English   Metric
Daily Weekly Monthly Yearly
  High: Low: Average:
Temperature: 43.9 °F /  6.6 °C 24.1 °F /  -4.4 °C 31.6 °F /  -0.2 °C
Dew Point: 27.7 °F /  -2.4 °C 17.6 °F /  -8 °C 22 °F /  -5.6 °C
Humidity: 89% 47% 69%
Wind Speed: 8.5mph /  13.7km/h - 1.2mph /  1.9km/h
Wind Gust: 16mph /  25.7km/h - -
Wind- - WNW
Pressure: 30.04 in /  1017.2 hPa 29.84 in /  1010.4 hPa -
Precipitation: 0.00 in /  0 mm    
 
 
Tabular Data for February 8, 2021
Time Temperature Dew Point Pressure Wind Wind Speed Wind Gust Humidity Rainfall Rate (Hourly) solar
00:04 28 °F /  -2.2 °C 22.7 °F /  -5.2 °C 30.03in /  1016.8hPa Calm     80% 0.00in /  0mm 0 W/m2
00:09 27.9 °F /  -2.3 °C 22.6 °F /  -5.2 °C 30.03in /  1016.8hPa Calm     80.2% 0.00in /  0mm 0 W/m2
00:14 27.8 °F /  -2.3 °C 22.8 °F /  -5.1 °C 30.03in /  1016.8hPa Calm     81% 0.00in /  0mm 0 W/m2
00:19 27.8 °F /  -2.3 °C 22.7 °F /  -5.2 °C 30.03in /  1016.8hPa Calm     81% 0.00in /  0mm 0 W/m2
00:24 27.7 °F /  -2.4 °C 22.7 °F /  -5.2 °C 30.02in /  1016.5hPa Calm     81% 0.00in /  0mm 0 W/m2
00:29 27.7 °F /  -2.4 °C 22.6 °F /  -5.2 °C 30.02in /  1016.5hPa Calm     81% 0.00in /  0mm 0 W/m2
00:34 27.6 °F /  -2.4 °C 22.7 °F /  -5.2 °C 30.03in /  1016.8hPa Calm     81.4% 0.00in /  0mm 0 W/m2
00:39 27.6 °F /  -2.4 °C 22.8 °F /  -5.1 °C 30.02in /  1016.5hPa Calm     82% 0.00in /  0mm 0 W/m2
00:44 27.6 °F /  -2.4 °C 22.8 °F /  -5.1 °C 30.02in /  1016.5hPa Calm     82% 0.00in /  0mm 0 W/m2
00:49 27.5 °F /  -2.5 °C 22.7 °F /  -5.2 °C 30.02in /  1016.5hPa Calm     82% 0.00in /  0mm 0 W/m2
00:54 27.4 °F /  -2.6 °C 22.6 °F /  -5.2 °C 30.02in /  1016.5hPa Calm     82% 0.00in /  0mm 0 W/m2
00:59 27.3 °F /  -2.6 °C 22.6 °F /  -5.2 °C 30.02in /  1016.5hPa Calm     82% 0.00in /  0mm 0 W/m2
01:04 27.2 °F /  -2.7 °C 22.5 °F /  -5.3 °C 30.02in /  1016.5hPa Calm     82% 0.00in /  0mm 0 W/m2
01:09 27.2 °F /  -2.7 °C 22.4 °F /  -5.3 °C 30.02in /  1016.5hPa Calm     82% 0.00in /  0mm 0 W/m2
01:14 27.1 °F /  -2.7 °C 22.4 °F /  -5.3 °C 30.02in /  1016.5hPa Calm     82% 0.00in /  0mm 0 W/m2
01:19 27.1 °F /  -2.7 °C 22.6 °F /  -5.2 °C 30.02in /  1016.5hPa Calm     83% 0.00in /  0mm 0 W/m2
01:24 27.1 °F /  -2.7 °C 22.6 °F /  -5.2 °C 30.02in /  1016.5hPa Calm     83% 0.00in /  0mm 0 W/m2
01:29 27 °F /  -2.8 °C 22.5 °F /  -5.3 °C 30.02in /  1016.5hPa Calm     83% 0.00in /  0mm 0 W/m2
01:34 27 °F /  -2.8 °C 22.5 °F /  -5.3 °C 30.02in /  1016.5hPa Calm     83% 0.00in /  0mm 0 W/m2
01:39 26.9 °F /  -2.8 °C 22.4 °F /  -5.3 °C 30.02in /  1016.5hPa Calm     83% 0.00in /  0mm 0 W/m2
01:44 26.8 °F /  -2.9 °C 22.4 °F /  -5.3 °C 30.02in /  1016.5hPa Calm     83% 0.00in /  0mm 0 W/m2
01:49 26.7 °F /  -2.9 °C 22.2 °F /  -5.4 °C 30.02in /  1016.5hPa Calm     83% 0.00in /  0mm 0 W/m2
01:54 26.6 °F /  -3 °C 22.2 °F /  -5.4 °C 30.02in /  1016.5hPa Calm     83% 0.00in /  0mm 0 W/m2
01:59 26.6 °F /  -3 °C 22.2 °F /  -5.4 °C 30.03in /  1016.8hPa Calm     83.2% 0.00in /  0mm 0 W/m2
02:04 26.5 °F /  -3.1 °C 22.2 °F /  -5.4 °C 30.03in /  1016.8hPa Calm     83.4% 0.00in /  0mm 0 W/m2
02:09 26.5 °F /  -3.1 °C 22.3 °F /  -5.4 °C 30.03in /  1016.8hPa Calm     84% 0.00in /  0mm 0 W/m2
02:14 26.5 °F /  -3.1 °C 22.3 °F /  -5.4 °C 30.04in /  1017.2hPa Calm     84% 0.00in /  0mm 0 W/m2
02:19 26.5 °F /  -3.1 °C 22.3 °F /  -5.4 °C 30.04in /  1017.2hPa Calm     84% 0.00in /  0mm 0 W/m2
02:24 26.4 °F /  -3.1 °C 22.2 °F /  -5.4 °C 30.04in /  1017.2hPa Calm     84% 0.00in /  0mm 0 W/m2
02:29 26.4 °F /  -3.1 °C 22.2 °F /  -5.4 °C 30.04in /  1017.2hPa Calm     84% 0.00in /  0mm 0 W/m2
02:34 26.4 °F /  -3.1 °C 22.2 °F /  -5.4 °C 30.04in /  1017.2hPa Calm     84% 0.00in /  0mm 0 W/m2
02:39 26.3 °F /  -3.2 °C 22.1 °F /  -5.5 °C 30.03in /  1016.8hPa NNW 0.1mph /  0.2km/h 2mph /  3.2km/h 84% 0.00in /  0mm 0 W/m2
02:44 26.3 °F /  -3.2 °C 22.1 °F /  -5.5 °C 30.03in /  1016.8hPa Calm   2mph /  3.2km/h 84% 0.00in /  0mm 0 W/m2
02:49 26.3 °F /  -3.2 °C 22.4 °F /  -5.3 °C 30.03in /  1016.8hPa Calm   2mph /  3.2km/h 84.9% 0.00in /  0mm 0 W/m2
02:54 26.4 °F /  -3.1 °C 22.5 °F /  -5.3 °C 30.03in /  1016.8hPa NNW 0.1mph /  0.2km/h 3mph /  4.8km/h 84.8% 0.00in /  0mm 0 W/m2
02:59 26.5 °F /  -3.1 °C 22.3 °F /  -5.4 °C 30.03in /  1016.8hPa NNW 0.1mph /  0.2km/h 3mph /  4.8km/h 84% 0.00in /  0mm 0 W/m2
03:04 26.6 °F /  -3 °C 22.4 °F /  -5.3 °C 30.03in /  1016.8hPa Calm   3mph /  4.8km/h 84% 0.00in /  0mm 0 W/m2
03:09 26.7 °F /  -2.9 °C 22.5 °F /  -5.3 °C 30.03in /  1016.8hPa Calm     84% 0.00in /  0mm 0 W/m2
03:14 26.7 °F /  -2.9 °C 22.5 °F /  -5.3 °C 30.02in /  1016.5hPa NNW 0.1mph /  0.2km/h 1mph /  1.6km/h 84% 0.00in /  0mm 0 W/m2
03:19 26.7 °F /  -2.9 °C 22.6 °F /  -5.2 °C 30.02in /  1016.5hPa NNW 0.1mph /  0.2km/h 2mph /  3.2km/h 84% 0.00in /  0mm 0 W/m2
03:24 26.8 °F /  -2.9 °C 22.4 °F /  -5.3 °C 30.02in /  1016.5hPa Calm   2mph /  3.2km/h 83.3% 0.00in /  0mm 0 W/m2
03:29 26.8 °F /  -2.9 °C 22.3 °F /  -5.4 °C 30.02in /  1016.5hPa Calm   2mph /  3.2km/h 83% 0.00in /  0mm 0 W/m2
03:34 26.8 °F /  -2.9 °C 22.3 °F /  -5.4 °C 30.02in /  1016.5hPa Calm   2mph /  3.2km/h 83% 0.00in /  0mm 0 W/m2
03:39 26.7 °F /  -2.9 °C 22.2 °F /  -5.4 °C 30.02in /  1016.5hPa NNW 0.1mph /  0.2km/h 3mph /  4.8km/h 83% 0.00in /  0mm 0 W/m2
03:44 26.6 °F /  -3 °C 22.2 °F /  -5.4 °C 30.02in /  1016.5hPa Calm   3mph /  4.8km/h 83% 0.00in /  0mm 0 W/m2
03:49 26.6 °F /  -3 °C 22.1 °F /  -5.5 °C 30.02in /  1016.5hPa Calm   3mph /  4.8km/h 83% 0.00in /  0mm 0 W/m2
03:54 26.5 °F /  -3.1 °C 22 °F /  -5.6 °C 30.01in /  1016.1hPa Calm   3mph /  4.8km/h 83% 0.00in /  0mm 0 W/m2
03:59 26.4 °F /  -3.1 °C 22 °F /  -5.6 °C 30.01in /  1016.1hPa Calm   3mph /  4.8km/h 83% 0.00in /  0mm 0 W/m2
04:04 26.4 °F /  -3.1 °C 22.2 °F /  -5.4 °C 30.01in /  1016.1hPa Calm   3mph /  4.8km/h 83.8% 0.00in /  0mm 0 W/m2
04:09 26.3 °F /  -3.2 °C 22.2 °F /  -5.4 °C 30.01in /  1016.1hPa Calm     84% 0.00in /  0mm 0 W/m2
04:14 26.3 °F /  -3.2 °C 22.1 °F /  -5.5 °C 30.01in /  1016.1hPa Calm     84% 0.00in /  0mm 0 W/m2
04:19 26.3 °F /  -3.2 °C 22.1 °F /  -5.5 °C 30.00in /  1015.8hPa Calm     84% 0.00in /  0mm 0 W/m2
04:24 26.3 °F /  -3.2 °C 22.1 °F /  -5.5 °C 30.00in /  1015.8hPa Calm     84% 0.00in /  0mm 0 W/m2
04:29 26.3 °F /  -3.2 °C 22.2 °F /  -5.4 °C 30.00in /  1015.8hPa Calm     84% 0.00in /  0mm 0 W/m2
04:34 26.4 °F /  -3.1 °C 22.2 °F /  -5.4 °C 30.00in /  1015.8hPa Calm     84% 0.00in /  0mm 0 W/m2
04:39 26.3 °F /  -3.2 °C 22.2 °F /  -5.4 °C 29.99in /  1015.5hPa Calm     84% 0.00in /  0mm 0 W/m2
04:44 26.3 °F /  -3.2 °C 22.1 °F /  -5.5 °C 29.99in /  1015.5hPa Calm     84% 0.00in /  0mm 0 W/m2
04:49 26.3 °F /  -3.2 °C 22.1 °F /  -5.5 °C 29.99in /  1015.5hPa Calm     84% 0.00in /  0mm 0 W/m2
04:54 26.2 °F /  -3.2 °C 22 °F /  -5.6 °C 29.99in /  1015.5hPa Calm     84% 0.00in /  0mm 0 W/m2
04:59 26.1 °F /  -3.3 °C 22 °F /  -5.6 °C 29.99in /  1015.5hPa Calm     84% 0.00in /  0mm 0 W/m2
05:04 26.1 °F /  -3.3 °C 21.9 °F /  -5.6 °C 30.00in /  1015.8hPa Calm     84% 0.00in /  0mm 0 W/m2
05:09 26 °F /  -3.3 °C 21.8 °F /  -5.7 °C 29.99in /  1015.5hPa NNW 0.1mph /  0.2km/h 2mph /  3.2km/h 84% 0.00in /  0mm 0 W/m2
05:14 25.9 °F /  -3.4 °C 21.7 °F /  -5.7 °C 29.99in /  1015.5hPa Calm   2mph /  3.2km/h 84% 0.00in /  0mm 0 W/m2
05:19 25.8 °F /  -3.4 °C 21.6 °F /  -5.8 °C 30.00in /  1015.8hPa Calm   2mph /  3.2km/h 84% 0.00in /  0mm 0 W/m2
05:24 25.7 °F /  -3.5 °C 21.6 °F /  -5.8 °C 30.00in /  1015.8hPa Calm   2mph /  3.2km/h 84% 0.00in /  0mm 0 W/m2
05:29 25.6 °F /  -3.6 °C 21.5 °F /  -5.8 °C 30.00in /  1015.8hPa Calm   2mph /  3.2km/h 84% 0.00in /  0mm 0 W/m2
05:34 25.4 °F /  -3.7 °C 21.5 °F /  -5.8 °C 30.00in /  1015.8hPa Calm   2mph /  3.2km/h 84.9% 0.00in /  0mm 0 W/m2
05:39 25.2 °F /  -3.8 °C 21.4 °F /  -5.9 °C 30.00in /  1015.8hPa Calm     85% 0.00in /  0mm 0 W/m2
05:44 25.1 °F /  -3.8 °C 21.2 °F /  -6 °C 30.00in /  1015.8hPa Calm     85% 0.00in /  0mm 0 W/m2
05:49 25 °F /  -3.9 °C 21.1 °F /  -6.1 °C 29.99in /  1015.5hPa Calm   1mph /  1.6km/h 85% 0.00in /  0mm 0 W/m2
05:54 25 °F /  -3.9 °C 21.4 °F /  -5.9 °C 29.99in /  1015.5hPa Calm   2mph /  3.2km/h 85.8% 0.00in /  0mm 0 W/m2
05:59 25.1 °F /  -3.8 °C 21.5 °F /  -5.8 °C 29.99in /  1015.5hPa Calm   2mph /  3.2km/h 86% 0.00in /  0mm 0 W/m2
06:04 25.1 °F /  -3.8 °C 21.5 °F /  -5.8 °C 29.99in /  1015.5hPa Calm   2mph /  3.2km/h 86% 0.00in /  0mm 0 W/m2
06:09 25.1 °F /  -3.8 °C 21.5 °F /  -5.8 °C 29.99in /  1015.5hPa Calm     86% 0.00in /  0mm 0 W/m2
06:14 25 °F /  -3.9 °C 21.4 °F /  -5.9 °C 29.99in /  1015.5hPa Calm     86% 0.00in /  0mm 0 W/m2
06:19 25 °F /  -3.9 °C 21.4 °F /  -5.9 °C 29.99in /  1015.5hPa Calm     86% 0.00in /  0mm 0 W/m2
06:24 25 °F /  -3.9 °C 21.4 °F /  -5.9 °C 29.99in /  1015.5hPa Calm     86% 0.00in /  0mm 0 W/m2
06:29 24.9 °F /  -3.9 °C 21.3 °F /  -5.9 °C 29.99in /  1015.5hPa Calm     86% 0.00in /  0mm 0 W/m2
06:34 24.9 °F /  -3.9 °C 21.4 °F /  -5.9 °C 30.00in /  1015.8hPa Calm     86% 0.00in /  0mm 0 W/m2
06:39 24.9 °F /  -3.9 °C 21.3 °F /  -5.9 °C 30.00in /  1015.8hPa NNW 0.1mph /  0.2km/h 2mph /  3.2km/h 86% 0.00in /  0mm 0 W/m2
06:44 24.7 °F /  -4.1 °C 20.9 °F /  -6.2 °C 30.00in /  1015.8hPa Calm   2mph /  3.2km/h 85.3% 0.00in /  0mm 0 W/m2
06:49 24.5 °F /  -4.2 °C 20.8 °F /  -6.2 °C 30.00in /  1015.8hPa Calm   2mph /  3.2km/h 85.6% 0.00in /  0mm 0 W/m2
06:54 24.4 °F /  -4.2 °C 20.8 °F /  -6.2 °C 30.00in /  1015.8hPa Calm   2mph /  3.2km/h 86% 0.00in /  0mm 0 W/m2
06:59 24.4 °F /  -4.2 °C 21 °F /  -6.1 °C 30.00in /  1015.8hPa Calm   2mph /  3.2km/h 86.8% 0.00in /  0mm 0 W/m2
07:04 24.4 °F /  -4.2 °C 21.1 °F /  -6.1 °C 30.00in /  1015.8hPa Calm   2mph /  3.2km/h 87% 0.00in /  0mm 0 W/m2
07:09 24.4 °F /  -4.2 °C 21.1 °F /  -6.1 °C 29.99in /  1015.5hPa Calm     87% 0.00in /  0mm 0 W/m2
07:14 24.3 °F /  -4.3 °C 21 °F /  -6.1 °C 29.99in /  1015.5hPa Calm     87% 0.00in /  0mm 0 W/m2
07:19 24.3 °F /  -4.3 °C 21 °F /  -6.1 °C 29.99in /  1015.5hPa Calm     87% 0.00in /  0mm 0 W/m2
07:24 24.2 °F /  -4.3 °C 20.9 °F /  -6.2 °C 29.99in /  1015.5hPa Calm     87% 0.00in /  0mm 5 W/m2
07:29 24.2 °F /  -4.3 °C 20.9 °F /  -6.2 °C 29.99in /  1015.5hPa Calm     87% 0.00in /  0mm 7 W/m2
07:34 24.1 °F /  -4.4 °C 20.8 °F /  -6.2 °C 29.99in /  1015.5hPa NNW 0.2mph /  0.3km/h 1mph /  1.6km/h 87% 0.00in /  0mm 11 W/m2
07:39 24.1 °F /  -4.4 °C 20.8 °F /  -6.2 °C 29.99in /  1015.5hPa Calm   1mph /  1.6km/h 87% 0.00in /  0mm 12 W/m2
07:44 24.2 °F /  -4.3 °C 20.9 °F /  -6.2 °C 29.99in /  1015.5hPa NNW 0.3mph /  0.5km/h 3mph /  4.8km/h 87.1% 0.00in /  0mm 18 W/m2
07:49 24.3 °F /  -4.3 °C 21.1 °F /  -6.1 °C 29.99in /  1015.5hPa Calm   3mph /  4.8km/h 87.4% 0.00in /  0mm 33 W/m2
07:54 24.5 °F /  -4.2 °C 21.5 °F /  -5.8 °C 29.99in /  1015.5hPa Calm   3mph /  4.8km/h 87.9% 0.00in /  0mm 51 W/m2
07:59 25 °F /  -3.9 °C 22 °F /  -5.6 °C 30.00in /  1015.8hPa Calm   3mph /  4.8km/h 88.3% 0.00in /  0mm 63 W/m2
08:00 25.4 °F /  -3.7 °C 22.6 °F /  -5.2 °C 30.00in /  1015.8hPa Calm   3mph /  4.8km/h 89% 0.00in /  0mm 49 W/m2
08:09 26.7 °F /  -2.9 °C 23.8 °F /  -4.6 °C 30.00in /  1015.8hPa Calm     88.7% 0.00in /  0mm 97 W/m2
08:14 27.5 °F /  -2.5 °C 24.3 °F /  -4.3 °C 30.00in /  1015.8hPa Calm     87.2% 0.00in /  0mm 116 W/m2
08:19 28.4 °F /  -2 °C 24.4 °F /  -4.2 °C 30.00in /  1015.8hPa Calm     84.8% 0.00in /  0mm 121 W/m2
08:24 29 °F /  -1.7 °C 24.6 °F /  -4.1 °C 30.00in /  1015.8hPa Calm     83.2% 0.00in /  0mm 121 W/m2
08:29 29.6 °F /  -1.3 °C 24.8 °F /  -4 °C 30.00in /  1015.8hPa Calm     81.8% 0.00in /  0mm 123 W/m2
08:34 30.1 °F /  -1.1 °C 24.7 °F /  -4.1 °C 30.00in /  1015.8hPa Calm   1mph /  1.6km/h 79.9% 0.00in /  0mm 62 W/m2
08:39 30.3 °F /  -0.9 °C 24.3 °F /  -4.3 °C 29.99in /  1015.5hPa NE 0.4mph /  0.6km/h 3mph /  4.8km/h 78.1% 0.00in /  0mm 116 W/m2
08:44 30.5 °F /  -0.8 °C 24.2 °F /  -4.3 °C 29.99in /  1015.5hPa NE 1mph /  1.6km/h 4mph /  6.4km/h 77.3% 0.00in /  0mm 116 W/m2
08:49 30.7 °F /  -0.7 °C 24.3 °F /  -4.3 °C 29.99in /  1015.5hPa NNE 0.5mph /  0.8km/h 4mph /  6.4km/h 77% 0.00in /  0mm 127 W/m2
08:54 31 °F /  -0.6 °C 24.6 °F /  -4.1 °C 29.99in /  1015.5hPa NNE 0.1mph /  0.2km/h 4mph /  6.4km/h 77% 0.00in /  0mm 123 W/m2
08:59 31.3 °F /  -0.4 °C 24.8 °F /  -4 °C 29.99in /  1015.5hPa NNE 0.5mph /  0.8km/h 4mph /  6.4km/h 76.4% 0.00in /  0mm 97 W/m2
09:04 31.4 °F /  -0.3 °C 24.4 °F /  -4.2 °C 29.99in /  1015.5hPa NNE 0.1mph /  0.2km/h 4mph /  6.4km/h 75% 0.00in /  0mm 134 W/m2
09:09 31.4 °F /  -0.3 °C 24.4 °F /  -4.2 °C 29.99in /  1015.5hPa NNW 1.3mph /  2.1km/h 6mph /  9.7km/h 75% 0.00in /  0mm 151 W/m2
09:14 31.5 °F /  -0.3 °C 24.5 °F /  -4.2 °C 29.99in /  1015.5hPa NNW 0.8mph /  1.3km/h 6mph /  9.7km/h 74.8% 0.00in /  0mm 142 W/m2
09:19 31.8 °F /  -0.1 °C 24.4 °F /  -4.2 °C 29.99in /  1015.5hPa NNW 0.5mph /  0.8km/h 6mph /  9.7km/h 74% 0.00in /  0mm 162 W/m2
09:24 31.9 °F /  -0.1 °C 24.4 °F /  -4.2 °C 29.99in /  1015.5hPa Calm   6mph /  9.7km/h 73.5% 0.00in /  0mm 162 W/m2
09:29 31.9 °F /  -0.1 °C 24.4 °F /  -4.2 °C 29.99in /  1015.5hPa North 0.6mph /  1km/h 6mph /  9.7km/h 73.6% 0.00in /  0mm 90 W/m2
09:34 32 °F /  0 °C 24.3 °F /  -4.3 °C 29.99in /  1015.5hPa North 0.3mph /  0.5km/h 6mph /  9.7km/h 73% 0.00in /  0mm 156 W/m2
09:39 32.2 °F /  0.1 °C 24.5 °F /  -4.2 °C 29.98in /  1015.1hPa North 0.8mph /  1.3km/h 4mph /  6.4km/h 73% 0.00in /  0mm 181 W/m2
09:44 32.5 °F /  0.3 °C 24.6 °F /  -4.1 °C 29.98in /  1015.1hPa North 0.3mph /  0.5km/h 4mph /  6.4km/h 72.5% 0.00in /  0mm 120 W/m2
09:49 32.7 °F /  0.4 °C 24.5 °F /  -4.2 °C 29.98in /  1015.1hPa NNW 1.9mph /  3.1km/h 6mph /  9.7km/h 71.5% 0.00in /  0mm 97 W/m2
09:54 32.9 °F /  0.5 °C 24.5 °F /  -4.2 °C 29.98in /  1015.1hPa NNW 1.5mph /  2.4km/h 6mph /  9.7km/h 71% 0.00in /  0mm 116 W/m2
09:59 33 °F /  0.6 °C 24.5 °F /  -4.2 °C 29.98in /  1015.1hPa NNW 0.9mph /  1.4km/h 6mph /  9.7km/h 70.6% 0.00in /  0mm 63 W/m2
10:04 33.2 °F /  0.7 °C 24.6 °F /  -4.1 °C 29.98in /  1015.1hPa North 2.2mph /  3.5km/h 6mph /  9.7km/h 70.3% 0.00in /  0mm 81 W/m2
10:09 33.3 °F /  0.7 °C 24.4 °F /  -4.2 °C 29.98in /  1015.1hPa North 0.9mph /  1.4km/h 6mph /  9.7km/h 69.5% 0.00in /  0mm 141 W/m2
10:14 33.4 °F /  0.8 °C 24.3 °F /  -4.3 °C 29.98in /  1015.1hPa NNW 0.7mph /  1.1km/h 6mph /  9.7km/h 69% 0.00in /  0mm 144 W/m2
10:19 33.6 °F /  0.9 °C 24.7 °F /  -4.1 °C 29.98in /  1015.1hPa NNW 2.1mph /  3.4km/h 6mph /  9.7km/h 69.4% 0.00in /  0mm 283 W/m2
10:24 34.1 °F /  1.2 °C 24.9 °F /  -3.9 °C 29.98in /  1015.1hPa NNW 0.3mph /  0.5km/h 6mph /  9.7km/h 68.6% 0.00in /  0mm 283 W/m2
10:29 34.7 °F /  1.5 °C 25.2 °F /  -3.8 °C 29.98in /  1015.1hPa WNW 1mph /  1.6km/h 6mph /  9.7km/h 67.9% 0.00in /  0mm 345 W/m2
10:34 35.3 °F /  1.8 °C 25.1 °F /  -3.8 °C 29.97in /  1014.8hPa WNW 0.9mph /  1.4km/h 6mph /  9.7km/h 66.2% 0.00in /  0mm 246 W/m2
10:39 35.8 °F /  2.1 °C 25.3 °F /  -3.7 °C 29.96in /  1014.4hPa WNW 1.1mph /  1.8km/h 4mph /  6.4km/h 65.2% 0.00in /  0mm 369 W/m2
10:44 36.3 °F /  2.4 °C 25.5 °F /  -3.6 °C 29.96in /  1014.4hPa NW 0.1mph /  0.2km/h 4mph /  6.4km/h 64.7% 0.00in /  0mm 373 W/m2
10:49 36.8 °F /  2.7 °C 25.7 °F /  -3.5 °C 29.96in /  1014.4hPa WNW 1.8mph /  2.9km/h 5mph /  8km/h 64% 0.00in /  0mm 452 W/m2
10:54 37.3 °F /  2.9 °C 25.8 °F /  -3.4 °C 29.95in /  1014.1hPa NW 0.8mph /  1.3km/h 5mph /  8km/h 63% 0.00in /  0mm 469 W/m2
10:59 37.8 °F /  3.2 °C 26.4 °F /  -3.1 °C 29.95in /  1014.1hPa NW 1.5mph /  2.4km/h 5mph /  8km/h 63.2% 0.00in /  0mm 439 W/m2
11:04 38.3 °F /  3.5 °C 26.8 °F /  -2.9 °C 29.94in /  1013.8hPa NW 0.9mph /  1.4km/h 5mph /  8km/h 63% 0.00in /  0mm 424 W/m2
11:09 39.1 °F /  3.9 °C 27.7 °F /  -2.4 °C 29.94in /  1013.8hPa NW 0.8mph /  1.3km/h 4mph /  6.4km/h 63.2% 0.00in /  0mm 229 W/m2
11:14 40 °F /  4.4 °C 27.2 °F /  -2.7 °C 29.94in /  1013.8hPa NW 0.1mph /  0.2km/h 4mph /  6.4km/h 59.9% 0.00in /  0mm 348 W/m2
11:19 40.2 °F /  4.6 °C 26.9 °F /  -2.8 °C 29.94in /  1013.8hPa WNW 0.5mph /  0.8km/h 6mph /  9.7km/h 58.7% 0.00in /  0mm 348 W/m2
11:24 40 °F /  4.4 °C 26.2 °F /  -3.2 °C 29.94in /  1013.8hPa West 0.9mph /  1.4km/h 6mph /  9.7km/h 57.3% 0.00in /  0mm 134 W/m2
11:29 39.6 °F /  4.2 °C 25.6 °F /  -3.6 °C 29.94in /  1013.8hPa Calm   6mph /  9.7km/h 56.9% 0.00in /  0mm 225 W/m2
11:34 39.2 °F /  4 °C 25.5 °F /  -3.6 °C 29.94in /  1013.8hPa West 0.5mph /  0.8km/h 6mph /  9.7km/h 57.6% 0.00in /  0mm 225 W/m2
11:39 38.8 °F /  3.8 °C 25.2 °F /  -3.8 °C 29.93in /  1013.4hPa West 0.9mph /  1.4km/h 4mph /  6.4km/h 57.7% 0.00in /  0mm 151 W/m2
11:44 38.7 °F /  3.7 °C 24.9 °F /  -3.9 °C 29.92in /  1013.1hPa WNW 1.5mph /  2.4km/h 5mph /  8km/h 57.3% 0.00in /  0mm 176 W/m2
11:49 38.7 °F /  3.7 °C 25.1 °F /  -3.8 °C 29.91in /  1012.8hPa WNW 1.8mph /  2.9km/h 9mph /  14.5km/h 57.8% 0.00in /  0mm 188 W/m2
11:54 38.9 °F /  3.8 °C 25.3 °F /  -3.7 °C 29.91in /  1012.8hPa WNW 2.7mph /  4.3km/h 11mph /  17.7km/h 57.7% 0.00in /  0mm 207 W/m2
11:59 39.3 °F /  4.1 °C 25.1 °F /  -3.8 °C 29.91in /  1012.8hPa NNW 1.7mph /  2.7km/h 11mph /  17.7km/h 56.4% 0.00in /  0mm 185 W/m2
12:00 39.5 °F /  4.2 °C 25.5 °F /  -3.6 °C 29.90in /  1012.4hPa Calm   11mph /  17.7km/h 57% 0.00in /  0mm 120 W/m2
12:09 40.3 °F /  4.6 °C 25 °F /  -3.9 °C 29.91in /  1012.8hPa NW 2mph /  3.2km/h 9mph /  14.5km/h 54% 0.00in /  0mm 274 W/m2
12:14 40.5 °F /  4.7 °C 24.8 °F /  -4 °C 29.90in /  1012.4hPa NNW 3.6mph /  5.8km/h 9mph /  14.5km/h 53.2% 0.00in /  0mm 229 W/m2
12:19 40.6 °F /  4.8 °C 24.7 °F /  -4.1 °C 29.90in /  1012.4hPa NW 2.5mph /  4km/h 9mph /  14.5km/h 52.7% 0.00in /  0mm 606 W/m2
12:24 40.8 °F /  4.9 °C 25.1 °F /  -3.8 °C 29.90in /  1012.4hPa WNW 2.1mph /  3.4km/h 9mph /  14.5km/h 53.2% 0.00in /  0mm 610 W/m2
12:29 41.2 °F /  5.1 °C 25.6 °F /  -3.6 °C 29.89in /  1012.1hPa NW 2.5mph /  4km/h 9mph /  14.5km/h 53.5% 0.00in /  0mm 564 W/m2
12:34 41.7 °F /  5.4 °C 25.3 °F /  -3.7 °C 29.89in /  1012.1hPa NW 3.9mph /  6.3km/h 9mph /  14.5km/h 51.8% 0.00in /  0mm 367 W/m2
12:39 41.9 °F /  5.5 °C 25 °F /  -3.9 °C 29.89in /  1012.1hPa WNW 1.5mph /  2.4km/h 11mph /  17.7km/h 50.7% 0.00in /  0mm 185 W/m2
12:44 42.1 °F /  5.6 °C 25.5 °F /  -3.6 °C 29.89in /  1012.1hPa NW 4.2mph /  6.8km/h 11mph /  17.7km/h 51.3% 0.00in /  0mm 531 W/m2
12:49 42.2 °F /  5.7 °C 24.9 °F /  -3.9 °C 29.89in /  1012.1hPa WNW 6.7mph /  10.8km/h 15mph /  24.1km/h 49.9% 0.00in /  0mm 473 W/m2
12:54 42.3 °F /  5.7 °C 24.9 °F /  -3.9 °C 29.89in /  1012.1hPa WNW 3.2mph /  5.1km/h 15mph /  24.1km/h 49.9% 0.00in /  0mm 510 W/m2
12:59 42.5 °F /  5.8 °C 24.9 °F /  -3.9 °C 29.89in /  1012.1hPa WNW 5.8mph /  9.3km/h 15mph /  24.1km/h 49.4% 0.00in /  0mm 369 W/m2
13:04 42.7 °F /  5.9 °C 25 °F /  -3.9 °C 29.89in /  1012.1hPa WNW 3.1mph /  5km/h 15mph /  24.1km/h 49.2% 0.00in /  0mm 116 W/m2
13:09 42.9 °F /  6.1 °C 25 °F /  -3.9 °C 29.89in /  1012.1hPa WNW 3.1mph /  5km/h 11mph /  17.7km/h 48.8% 0.00in /  0mm 116 W/m2
13:14 43 °F /  6.1 °C 25.1 °F /  -3.8 °C 29.89in /  1012.1hPa WSW 0.9mph /  1.4km/h 11mph /  17.7km/h 48.8% 0.00in /  0mm 232 W/m2
13:19 43.1 °F /  6.2 °C 25.3 °F /  -3.7 °C 29.89in /  1012.1hPa WSW 2.1mph /  3.4km/h 11mph /  17.7km/h 49% 0.00in /  0mm 192 W/m2
13:24 43.5 °F /  6.4 °C 25.5 °F /  -3.6 °C 29.89in /  1012.1hPa WSW 1.7mph /  2.7km/h 11mph /  17.7km/h 48.9% 0.00in /  0mm 462 W/m2
13:29 43.8 °F /  6.6 °C 25.7 °F /  -3.5 °C 29.89in /  1012.1hPa WNW 2.5mph /  4km/h 11mph /  17.7km/h 48.6% 0.00in /  0mm 417 W/m2
13:34 43.9 °F /  6.6 °C 25.6 °F /  -3.6 °C 29.89in /  1012.1hPa West 3.5mph /  5.6km/h 11mph /  17.7km/h 48.2% 0.00in /  0mm 441 W/m2
13:39 43.9 °F /  6.6 °C 25.3 °F /  -3.7 °C 29.89in /  1012.1hPa WNW 4.3mph /  6.9km/h 14mph /  22.5km/h 47.7% 0.00in /  0mm 371 W/m2
13:44 43.3 °F /  6.3 °C 24.4 °F /  -4.2 °C 29.89in /  1012.1hPa WNW 5.4mph /  8.7km/h 14mph /  22.5km/h 47% 0.00in /  0mm 306 W/m2
13:49 42.6 °F /  5.9 °C 24.4 °F /  -4.2 °C 29.89in /  1012.1hPa WNW 4.4mph /  7.1km/h 14mph /  22.5km/h 48.2% 0.00in /  0mm 306 W/m2
13:54 42.2 °F /  5.7 °C 24.2 °F /  -4.3 °C 29.88in /  1011.7hPa WNW 3.4mph /  5.5km/h 14mph /  22.5km/h 48.6% 0.00in /  0mm 98 W/m2
13:59 41.9 °F /  5.5 °C 24.1 °F /  -4.4 °C 29.88in /  1011.7hPa WNW 3.3mph /  5.3km/h 14mph /  22.5km/h 49% 0.00in /  0mm 172 W/m2
14:04 41.6 °F /  5.3 °C 24.4 °F /  -4.2 °C 29.88in /  1011.7hPa WNW 2.5mph /  4km/h 14mph /  22.5km/h 50.2% 0.00in /  0mm 144 W/m2
14:09 41.5 °F /  5.3 °C 24.7 °F /  -4.1 °C 29.88in /  1011.7hPa WNW 3.9mph /  6.3km/h 14mph /  22.5km/h 51% 0.00in /  0mm 211 W/m2
14:14 41.4 °F /  5.2 °C 24.2 °F /  -4.3 °C 29.88in /  1011.7hPa NW 4.9mph /  7.9km/h 14mph /  22.5km/h 50% 0.00in /  0mm 243 W/m2
14:19 41.4 °F /  5.2 °C 24.2 °F /  -4.3 °C 29.89in /  1012.1hPa WNW 4.4mph /  7.1km/h 14mph /  22.5km/h 50% 0.00in /  0mm 155 W/m2
14:24 41.4 °F /  5.2 °C 24.1 °F /  -4.4 °C 29.89in /  1012.1hPa WNW 5.7mph /  9.2km/h 14mph /  22.5km/h 50% 0.00in /  0mm 179 W/m2
14:29 41.3 °F /  5.2 °C 24.1 °F /  -4.4 °C 29.89in /  1012.1hPa WNW 5.9mph /  9.5km/h 14mph /  22.5km/h 50% 0.00in /  0mm 151 W/m2
14:34 41.1 °F /  5.1 °C 23.9 °F /  -4.5 °C 29.89in /  1012.1hPa WNW 4.7mph /  7.6km/h 14mph /  22.5km/h 50% 0.00in /  0mm 111 W/m2
14:39 41 °F /  5 °C 23.8 °F /  -4.6 °C 29.88in /  1011.7hPa WNW 6.2mph /  10km/h 13mph /  20.9km/h 50% 0.00in /  0mm 97 W/m2
14:44 40.7 °F /  4.8 °C 23.6 °F /  -4.7 °C 29.89in /  1012.1hPa WNW 5.6mph /  9km/h 13mph /  20.9km/h 50% 0.00in /  0mm 25 W/m2
14:49 40.3 °F /  4.6 °C 23.7 °F /  -4.6 °C 29.88in /  1011.7hPa WNW 4.2mph /  6.8km/h 13mph /  20.9km/h 51.2% 0.00in /  0mm 28 W/m2
14:54 39.8 °F /  4.3 °C 23.7 °F /  -4.6 °C 29.88in /  1011.7hPa WNW 4.4mph /  7.1km/h 14mph /  22.5km/h 52.2% 0.00in /  0mm 26 W/m2
14:59 39.3 °F /  4.1 °C 23.6 °F /  -4.7 °C 29.87in /  1011.4hPa WNW 8.5mph /  13.7km/h 14mph /  22.5km/h 52.8% 0.00in /  0mm 26 W/m2
15:04 38.9 °F /  3.8 °C 23.3 °F /  -4.8 °C 29.87in /  1011.4hPa WNW 7.4mph /  11.9km/h 16mph /  25.7km/h 53.1% 0.00in /  0mm 28 W/m2
15:09 38.6 °F /  3.7 °C 23.3 °F /  -4.8 °C 29.86in /  1011.1hPa WNW 5.4mph /  8.7km/h 16mph /  25.7km/h 53.8% 0.00in /  0mm 28 W/m2
15:14 38.3 °F /  3.5 °C 23.1 °F /  -4.9 °C 29.87in /  1011.4hPa NW 4mph /  6.4km/h 16mph /  25.7km/h 54% 0.00in /  0mm 25 W/m2
15:19 38.1 °F /  3.4 °C 23 °F /  -5 °C 29.87in /  1011.4hPa WNW 4.2mph /  6.8km/h 16mph /  25.7km/h 54.2% 0.00in /  0mm 23 W/m2
15:24 37.9 °F /  3.3 °C 23.2 °F /  -4.9 °C 29.86in /  1011.1hPa WNW 5.3mph /  8.5km/h 16mph /  25.7km/h 55% 0.00in /  0mm 26 W/m2
15:29 37.6 °F /  3.1 °C 23.1 °F /  -4.9 °C 29.86in /  1011.1hPa WNW 5.7mph /  9.2km/h 16mph /  25.7km/h 55.4% 0.00in /  0mm 26 W/m2
15:34 37.4 °F /  3 °C 23.2 °F /  -4.9 °C 29.86in /  1011.1hPa WNW 3.3mph /  5.3km/h 16mph /  25.7km/h 56% 0.00in /  0mm 26 W/m2
15:39 37.2 °F /  2.9 °C 23 °F /  -5 °C 29.87in /  1011.4hPa WNW 3.5mph /  5.6km/h 10mph /  16.1km/h 56% 0.00in /  0mm 23 W/m2
15:44 37 °F /  2.8 °C 22.9 °F /  -5.1 °C 29.87in /  1011.4hPa NW 3.7mph /  6km/h 10mph /  16.1km/h 56.2% 0.00in /  0mm 19 W/m2
15:49 36.7 °F /  2.6 °C 22.9 °F /  -5.1 °C 29.86in /  1011.1hPa WNW 3mph /  4.8km/h 10mph /  16.1km/h 57% 0.00in /  0mm 18 W/m2
15:54 36.5 °F /  2.5 °C 22.7 °F /  -5.2 °C 29.86in /  1011.1hPa WNW 3.5mph /  5.6km/h 10mph /  16.1km/h 57% 0.00in /  0mm 18 W/m2
15:59 36.3 °F /  2.4 °C 22.8 °F /  -5.1 °C 29.86in /  1011.1hPa WNW 3.6mph /  5.8km/h 10mph /  16.1km/h 57.7% 0.00in /  0mm 18 W/m2
16:00 36.2 °F /  2.3 °C 22.9 °F /  -5.1 °C 29.86in /  1011.1hPa West 1mph /  1.6km/h 10mph /  16.1km/h 58% 0.00in /  0mm 14 W/m2
16:09 35.9 °F /  2.2 °C 22.8 °F /  -5.1 °C 29.86in /  1011.1hPa WNW 2.6mph /  4.2km/h 10mph /  16.1km/h 58.5% 0.00in /  0mm 11 W/m2
16:14 35.7 °F /  2.1 °C 22.8 °F /  -5.1 °C 29.86in /  1011.1hPa WNW 2.5mph /  4km/h 10mph /  16.1km/h 59% 0.00in /  0mm 9 W/m2
16:19 35.5 °F /  1.9 °C 22.6 °F /  -5.2 °C 29.86in /  1011.1hPa Calm   10mph /  16.1km/h 59% 0.00in /  0mm 9 W/m2
16:24 35.3 °F /  1.8 °C 22.6 °F /  -5.2 °C 29.86in /  1011.1hPa WNW 0.6mph /  1km/h 10mph /  16.1km/h 59.4% 0.00in /  0mm 7 W/m2
16:29 35.2 °F /  1.8 °C 22.7 °F /  -5.2 °C 29.86in /  1011.1hPa WNW 0.6mph /  1km/h 10mph /  16.1km/h 60% 0.00in /  0mm 5 W/m2
16:34 35 °F /  1.7 °C 22.5 °F /  -5.3 °C 29.86in /  1011.1hPa WNW 0.2mph /  0.3km/h 10mph /  16.1km/h 60% 0.00in /  0mm 0 W/m2
16:39 34.7 °F /  1.5 °C 22.5 °F /  -5.3 °C 29.86in /  1011.1hPa West 0.6mph /  1km/h 6mph /  9.7km/h 60.6% 0.00in /  0mm 0 W/m2
16:44 34.5 °F /  1.4 °C 22.5 °F /  -5.3 °C 29.86in /  1011.1hPa Calm   6mph /  9.7km/h 61% 0.00in /  0mm 0 W/m2
16:49 34.3 °F /  1.3 °C 22.3 °F /  -5.4 °C 29.86in /  1011.1hPa West 0.5mph /  0.8km/h 6mph /  9.7km/h 61% 0.00in /  0mm 0 W/m2
16:54 34.1 °F /  1.2 °C 22.3 °F /  -5.4 °C 29.86in /  1011.1hPa West 0.3mph /  0.5km/h 6mph /  9.7km/h 61.7% 0.00in /  0mm 0 W/m2
16:59 33.9 °F /  1.1 °C 21.9 °F /  -5.6 °C 29.86in /  1011.1hPa Calm   6mph /  9.7km/h 61% 0.00in /  0mm 0 W/m2
17:04 33.7 °F /  0.9 °C 22.1 °F /  -5.5 °C 29.86in /  1011.1hPa Calm   6mph /  9.7km/h 62% 0.00in /  0mm 0 W/m2
17:09 33.5 °F /  0.8 °C 21.9 °F /  -5.6 °C 29.86in /  1011.1hPa Calm   1mph /  1.6km/h 62% 0.00in /  0mm 0 W/m2
17:14 33.3 °F /  0.7 °C 21.7 °F /  -5.7 °C 29.86in /  1011.1hPa Calm   1mph /  1.6km/h 62% 0.00in /  0mm 0 W/m2
17:19 33.2 °F /  0.7 °C 21.6 °F /  -5.8 °C 29.86in /  1011.1hPa Calm   1mph /  1.6km/h 62% 0.00in /  0mm 0 W/m2
17:24 33 °F /  0.6 °C 21.4 °F /  -5.9 °C 29.86in /  1011.1hPa Calm   2mph /  3.2km/h 62% 0.00in /  0mm 0 W/m2
17:29 32.8 °F /  0.4 °C 21.3 °F /  -5.9 °C 29.86in /  1011.1hPa WNW 0.5mph /  0.8km/h 5mph /  8km/h 62% 0.00in /  0mm 0 W/m2
17:34 32.7 °F /  0.4 °C 21.2 °F /  -6 °C 29.86in /  1011.1hPa WNW 2.1mph /  3.4km/h 8mph /  12.9km/h 62% 0.00in /  0mm 0 W/m2
17:39 32.6 °F /  0.3 °C 21.1 °F /  -6.1 °C 29.86in /  1011.1hPa WNW 1.7mph /  2.7km/h 8mph /  12.9km/h 62% 0.00in /  0mm 0 W/m2
17:44 32.6 °F /  0.3 °C 21 °F /  -6.1 °C 29.86in /  1011.1hPa WNW 0.4mph /  0.6km/h 8mph /  12.9km/h 62% 0.00in /  0mm 0 W/m2
17:49 32.6 °F /  0.3 °C 20.8 °F /  -6.2 °C 29.86in /  1011.1hPa WNW 0.2mph /  0.3km/h 8mph /  12.9km/h 61.4% 0.00in /  0mm 0 W/m2
17:54 32.5 °F /  0.3 °C 20.6 °F /  -6.3 °C 29.86in /  1011.1hPa WNW 0.2mph /  0.3km/h 8mph /  12.9km/h 61% 0.00in /  0mm 0 W/m2
17:59 32.5 °F /  0.3 °C 20.3 °F /  -6.5 °C 29.87in /  1011.4hPa Calm   8mph /  12.9km/h 60.4% 0.00in /  0mm 0 W/m2
18:04 32.5 °F /  0.3 °C 20.1 °F /  -6.6 °C 29.87in /  1011.4hPa WNW 0.1mph /  0.2km/h 8mph /  12.9km/h 60% 0.00in /  0mm 0 W/m2
18:09 32.4 °F /  0.2 °C 20.1 °F /  -6.6 °C 29.87in /  1011.4hPa WNW 1mph /  1.6km/h 5mph /  8km/h 60% 0.00in /  0mm 0 W/m2
18:14 32.4 °F /  0.2 °C 19.8 °F /  -6.8 °C 29.87in /  1011.4hPa NW 1mph /  1.6km/h 5mph /  8km/h 59.3% 0.00in /  0mm 0 W/m2
18:19 32.4 °F /  0.2 °C 19.5 °F /  -6.9 °C 29.86in /  1011.1hPa NW 2.4mph /  3.9km/h 10mph /  16.1km/h 58.6% 0.00in /  0mm 0 W/m2
18:24 32.5 °F /  0.3 °C 19.3 °F /  -7.1 °C 29.86in /  1011.1hPa NW 3mph /  4.8km/h 10mph /  16.1km/h 57.9% 0.00in /  0mm 0 W/m2
18:29 32.7 °F /  0.4 °C 18.8 °F /  -7.3 °C 29.87in /  1011.4hPa NW 4.6mph /  7.4km/h 12mph /  19.3km/h 56.2% 0.00in /  0mm 0 W/m2
18:34 32.9 °F /  0.5 °C 18.6 °F /  -7.4 °C 29.87in /  1011.4hPa NW 3.6mph /  5.8km/h 12mph /  19.3km/h 55.2% 0.00in /  0mm 0 W/m2
18:39 33 °F /  0.6 °C 18.6 °F /  -7.4 °C 29.87in /  1011.4hPa NW 4mph /  6.4km/h 12mph /  19.3km/h 55% 0.00in /  0mm 0 W/m2
18:44 33.1 °F /  0.6 °C 18.5 °F /  -7.5 °C 29.87in /  1011.4hPa NW 2.8mph /  4.5km/h 12mph /  19.3km/h 54.5% 0.00in /  0mm 0 W/m2
18:49 33 °F /  0.6 °C 18.4 °F /  -7.6 °C 29.87in /  1011.4hPa NW 4mph /  6.4km/h 16mph /  25.7km/h 54.4% 0.00in /  0mm 0 W/m2
18:54 33 °F /  0.6 °C 18.1 °F /  -7.7 °C 29.87in /  1011.4hPa WNW 1.7mph /  2.7km/h 16mph /  25.7km/h 53.9% 0.00in /  0mm 0 W/m2
18:59 33 °F /  0.6 °C 18 °F /  -7.8 °C 29.87in /  1011.4hPa NW 2.3mph /  3.7km/h 16mph /  25.7km/h 53.5% 0.00in /  0mm 0 W/m2
19:04 33 °F /  0.6 °C 18 °F /  -7.8 °C 29.87in /  1011.4hPa NW 1.4mph /  2.3km/h 16mph /  25.7km/h 53.7% 0.00in /  0mm 0 W/m2
19:09 32.9 °F /  0.5 °C 17.8 °F /  -7.9 °C 29.88in /  1011.7hPa NW 1.1mph /  1.8km/h 6mph /  9.7km/h 53.4% 0.00in /  0mm 0 W/m2
19:14 32.8 °F /  0.4 °C 17.8 °F /  -7.9 °C 29.88in /  1011.7hPa NW 0.9mph /  1.4km/h 6mph /  9.7km/h 53.6% 0.00in /  0mm 0 W/m2
19:19 32.6 °F /  0.3 °C 17.8 °F /  -7.9 °C 29.88in /  1011.7hPa NW 1mph /  1.6km/h 6mph /  9.7km/h 54% 0.00in /  0mm 0 W/m2
19:24 32.5 °F /  0.3 °C 17.8 °F /  -7.9 °C 29.88in /  1011.7hPa WNW 1.9mph /  3.1km/h 6mph /  9.7km/h 54.2% 0.00in /  0mm 0 W/m2
19:29 32.3 °F /  0.2 °C 17.9 °F /  -7.8 °C 29.88in /  1011.7hPa WNW 2.1mph /  3.4km/h 6mph /  9.7km/h 55% 0.00in /  0mm 0 W/m2
19:34 32.1 °F /  0.1 °C 17.8 °F /  -7.9 °C 29.88in /  1011.7hPa WNW 3.6mph /  5.8km/h 9mph /  14.5km/h 55% 0.00in /  0mm 0 W/m2
19:39 32 °F /  0 °C 17.6 °F /  -8 °C 29.88in /  1011.7hPa NW 2.1mph /  3.4km/h 9mph /  14.5km/h 55% 0.00in /  0mm 0 W/m2
19:44 31.8 °F /  -0.1 °C 17.9 °F /  -7.8 °C 29.87in /  1011.4hPa WNW 1.9mph /  3.1km/h 9mph /  14.5km/h 55.9% 0.00in /  0mm 0 W/m2
19:49 31.7 °F /  -0.2 °C 17.8 °F /  -7.9 °C 29.88in /  1011.7hPa WNW 1.3mph /  2.1km/h 9mph /  14.5km/h 56% 0.00in /  0mm 0 W/m2
19:54 31.6 °F /  -0.2 °C 18 °F /  -7.8 °C 29.87in /  1011.4hPa WNW 3.1mph /  5km/h 9mph /  14.5km/h 56.7% 0.00in /  0mm 0 W/m2
19:59 31.4 °F /  -0.3 °C 17.9 °F /  -7.8 °C 29.87in /  1011.4hPa WNW 2.5mph /  4km/h 9mph /  14.5km/h 57% 0.00in /  0mm 0 W/m2
20:04 31.2 °F /  -0.4 °C 17.8 °F /  -7.9 °C 29.87in /  1011.4hPa NW 2mph /  3.2km/h 2mph /  3.2km/h 57% 0.00in /  0mm 0 W/m2
20:09 31.2 °F /  -0.4 °C 17.9 °F /  -7.8 °C 29.87in /  1011.4hPa NW 2.2mph /  3.5km/h 9mph /  14.5km/h 57.3% 0.00in /  0mm 0 W/m2
20:14 31.1 °F /  -0.5 °C 18 °F /  -7.8 °C 29.87in /  1011.4hPa NW 4.8mph /  7.7km/h 12mph /  19.3km/h 58% 0.00in /  0mm 0 W/m2
20:19 30.9 °F /  -0.6 °C 18.1 °F /  -7.7 °C 29.87in /  1011.4hPa WNW 3mph /  4.8km/h 12mph /  19.3km/h 58.6% 0.00in /  0mm 0 W/m2
20:24 30.8 °F /  -0.7 °C 18.2 °F /  -7.7 °C 29.87in /  1011.4hPa WNW 3.9mph /  6.3km/h 12mph /  19.3km/h 59% 0.00in /  0mm 0 W/m2
20:29 30.6 °F /  -0.8 °C 18.1 °F /  -7.7 °C 29.87in /  1011.4hPa NW 2.5mph /  4km/h 12mph /  19.3km/h 59.2% 0.00in /  0mm 0 W/m2
20:34 30.6 °F /  -0.8 °C 18.4 °F /  -7.6 °C 29.86in /  1011.1hPa NW 3.9mph /  6.3km/h 12mph /  19.3km/h 60% 0.00in /  0mm 0 W/m2
20:39 30.5 °F /  -0.8 °C 18.3 °F /  -7.6 °C 29.86in /  1011.1hPa NW 3.1mph /  5km/h 11mph /  17.7km/h 60% 0.00in /  0mm 0 W/m2
20:44 30.5 °F /  -0.8 °C 18.3 °F /  -7.6 °C 29.86in /  1011.1hPa NW 2.9mph /  4.7km/h 11mph /  17.7km/h 60% 0.00in /  0mm 0 W/m2
20:49 30.5 °F /  -0.8 °C 18.2 °F /  -7.7 °C 29.86in /  1011.1hPa WNW 2.1mph /  3.4km/h 11mph /  17.7km/h 60% 0.00in /  0mm 0 W/m2
20:54 30.4 °F /  -0.9 °C 18.2 °F /  -7.7 °C 29.86in /  1011.1hPa NW 0.4mph /  0.6km/h 11mph /  17.7km/h 60% 0.00in /  0mm 0 W/m2
20:59 30.4 °F /  -0.9 °C 18.2 °F /  -7.7 °C 29.86in /  1011.1hPa NW 0.7mph /  1.1km/h 11mph /  17.7km/h 60% 0.00in /  0mm 0 W/m2
21:04 30.3 °F /  -0.9 °C 18.3 °F /  -7.6 °C 29.86in /  1011.1hPa NW 0.5mph /  0.8km/h 11mph /  17.7km/h 60.5% 0.00in /  0mm 0 W/m2
21:09 30.2 °F /  -1 °C 18.3 °F /  -7.6 °C 29.86in /  1011.1hPa NW 0.2mph /  0.3km/h 5mph /  8km/h 60.9% 0.00in /  0mm 0 W/m2
21:14 30.1 °F /  -1.1 °C 18.3 °F /  -7.6 °C 29.86in /  1011.1hPa NW 0.3mph /  0.5km/h 5mph /  8km/h 61% 0.00in /  0mm 0 W/m2
21:19 30.1 °F /  -1.1 °C 18.3 °F /  -7.6 °C 29.86in /  1011.1hPa NW 0.3mph /  0.5km/h 5mph /  8km/h 61% 0.00in /  0mm 0 W/m2
21:24 30 °F /  -1.1 °C 18.3 °F /  -7.6 °C 29.86in /  1011.1hPa NW 1.1mph /  1.8km/h 5mph /  8km/h 61.2% 0.00in /  0mm 0 W/m2
21:29 30 °F /  -1.1 °C 18.6 °F /  -7.4 °C 29.86in /  1011.1hPa NW 0.4mph /  0.6km/h 6mph /  9.7km/h 62% 0.00in /  0mm 0 W/m2
21:34 29.9 °F /  -1.2 °C 18.5 °F /  -7.5 °C 29.86in /  1011.1hPa NW 0.2mph /  0.3km/h 6mph /  9.7km/h 62% 0.00in /  0mm 0 W/m2
21:39 29.9 °F /  -1.2 °C 18.4 °F /  -7.6 °C 29.86in /  1011.1hPa NW 0.2mph /  0.3km/h 3mph /  4.8km/h 62% 0.00in /  0mm 0 W/m2
21:44 29.8 °F /  -1.2 °C 18.6 °F /  -7.4 °C 29.86in /  1011.1hPa NW 0.3mph /  0.5km/h 3mph /  4.8km/h 62.7% 0.00in /  0mm 0 W/m2
21:49 29.7 °F /  -1.3 °C 19.3 °F /  -7.1 °C 29.85in /  1010.7hPa NW 0.6mph /  1km/h 6mph /  9.7km/h 64.7% 0.00in /  0mm 0 W/m2
21:54 29.8 °F /  -1.2 °C 20.7 °F /  -6.3 °C 29.85in /  1010.7hPa NW 1.1mph /  1.8km/h 6mph /  9.7km/h 68.6% 0.00in /  0mm 0 W/m2
21:59 29.9 °F /  -1.2 °C 21 °F /  -6.1 °C 29.85in /  1010.7hPa NW 0.5mph /  0.8km/h 6mph /  9.7km/h 69.2% 0.00in /  0mm 0 W/m2
22:04 30 °F /  -1.1 °C 21.3 °F /  -5.9 °C 29.85in /  1010.7hPa NW 0.2mph /  0.3km/h 6mph /  9.7km/h 69.8% 0.00in /  0mm 0 W/m2
22:09 30.1 °F /  -1.1 °C 21.9 °F /  -5.6 °C 29.85in /  1010.7hPa Calm   3mph /  4.8km/h 71.2% 0.00in /  0mm 0 W/m2
22:14 30.2 °F /  -1 °C 22.2 °F /  -5.4 °C 29.85in /  1010.7hPa NW 0.1mph /  0.2km/h 3mph /  4.8km/h 71.7% 0.00in /  0mm 0 W/m2
22:19 30.2 °F /  -1 °C 21.8 °F /  -5.7 °C 29.85in /  1010.7hPa Calm   3mph /  4.8km/h 70.5% 0.00in /  0mm 0 W/m2
22:24 30.2 °F /  -1 °C 21.4 °F /  -5.9 °C 29.85in /  1010.7hPa Calm   3mph /  4.8km/h 69.3% 0.00in /  0mm 0 W/m2
22:29 30.2 °F /  -1 °C 20.6 °F /  -6.3 °C 29.85in /  1010.7hPa Calm   3mph /  4.8km/h 67.1% 0.00in /  0mm 0 W/m2
22:34 30.1 °F /  -1.1 °C 19.9 °F /  -6.7 °C 29.85in /  1010.7hPa Calm   3mph /  4.8km/h 65.4% 0.00in /  0mm 0 W/m2
22:39 30 °F /  -1.1 °C 19.7 °F /  -6.8 °C 29.85in /  1010.7hPa Calm     65% 0.00in /  0mm 0 W/m2
22:44 29.9 °F /  -1.2 °C 19.3 °F /  -7.1 °C 29.85in /  1010.7hPa Calm     64.2% 0.00in /  0mm 0 W/m2
22:49 29.8 °F /  -1.2 °C 19.4 °F /  -7 °C 29.84in /  1010.4hPa Calm     65% 0.00in /  0mm 0 W/m2
22:54 29.7 °F /  -1.3 °C 19.4 °F /  -7 °C 29.84in /  1010.4hPa Calm     65% 0.00in /  0mm 0 W/m2
22:59 29.7 °F /  -1.3 °C 19.3 °F /  -7.1 °C 29.84in /  1010.4hPa Calm     65% 0.00in /  0mm 0 W/m2
23:00 29.6 °F /  -1.3 °C 19.3 °F /  -7.1 °C 29.84in /  1010.4hPa Calm     65% 0.00in /  0mm 0 W/m2
23:09 29.4 °F /  -1.4 °C 18.8 °F /  -7.3 °C 29.84in /  1010.4hPa Calm     64% 0.00in /  0mm 0 W/m2
23:14 29.2 °F /  -1.6 °C 18.6 °F /  -7.4 °C 29.84in /  1010.4hPa Calm     64% 0.00in /  0mm 0 W/m2
23:19 29.1 °F /  -1.6 °C 18.4 °F /  -7.6 °C 29.84in /  1010.4hPa Calm     64% 0.00in /  0mm 0 W/m2
23:24 28.9 °F /  -1.7 °C 18.2 °F /  -7.7 °C 29.84in /  1010.4hPa Calm     64% 0.00in /  0mm 0 W/m2
23:29 28.7 °F /  -1.8 °C 18.1 °F /  -7.7 °C 29.84in /  1010.4hPa Calm     64% 0.00in /  0mm 0 W/m2
23:34 28.5 °F /  -1.9 °C 18.2 °F /  -7.7 °C 29.84in /  1010.4hPa Calm     64.9% 0.00in /  0mm 0 W/m2
23:39 28.3 °F /  -2.1 °C 18 °F /  -7.8 °C 29.84in /  1010.4hPa Calm     65% 0.00in /  0mm 0 W/m2
23:44 28.1 °F /  -2.2 °C 18.2 °F /  -7.7 °C 29.84in /  1010.4hPa Calm     65.9% 0.00in /  0mm 0 W/m2
23:49 27.9 °F /  -2.3 °C 18 °F /  -7.8 °C 29.84in /  1010.4hPa Calm     65.9% 0.00in /  0mm 0 W/m2
23:54 27.8 °F /  -2.3 °C 18 °F /  -7.8 °C 29.84in /  1010.4hPa Calm     66% 0.00in /  0mm 0 W/m2
23:59 27.7 °F /  -2.4 °C 17.9 °F /  -7.8 °C 29.84in /  1010.4hPa NW 0.1mph /  0.2km/h 2mph /  3.2km/h 66% 0.00in /  0mm 0 W/m2
Hartford County Weather
Compliments of Weather Underground - 2 mb